Time;durP1;ratioP1;P1;durP2;ratioP2;P2;SDS_P1;SDS_P2;PMS_P1;PMS_P2;Temp;Humidity;BMP_temperature;BMP_pressure;BME280_temperature;BME280_humidity;BME280_pressure;Samples;Min_cycle;Max_cycle;Signal;HPM_P1;HPM_P2
2023/08/14 00:02:37;;;;;;;12.13;3.40;;;18.50;99.90;;;;;;5000192;28;20300;-76
2023/08/14 00:05:23;;;;;;;8.00;3.28;;;18.40;99.90;;;;;;4978990;28;20046;-75
2023/08/14 00:08:09;;;;;;;8.55;3.10;;;18.40;99.90;;;;;;4993550;28;20072;-75
2023/08/14 00:10:55;;;;;;;7.80;3.17;;;18.40;99.90;;;;;;4986681;28;20038;-76
2023/08/14 00:13:54;;;;;;;5.40;3.35;;;18.30;99.90;;;;;;4993611;28;20029;-75
2023/08/14 00:16:40;;;;;;;6.85;3.00;;;18.30;99.90;;;;;;4969554;28;20466;-75
2023/08/14 00:19:26;;;;;;;9.52;3.65;;;18.30;99.90;;;;;;4996783;28;20042;-75
2023/08/14 00:22:13;;;;;;;7.10;2.88;;;18.30;99.90;;;;;;4986838;28;20052;-75
2023/08/14 00:24:59;;;;;;;6.75;2.75;;;18.30;99.90;;;;;;4980200;28;20363;-75
2023/08/14 00:27:45;;;;;;;9.75;3.60;;;18.20;99.90;;;;;;5000563;28;20068;-75
2023/08/14 00:30:31;;;;;;;9.38;4.13;;;18.30;99.90;;;;;;4979653;28;20046;-75
2023/08/14 00:33:17;;;;;;;6.95;3.40;;;18.20;99.90;;;;;;4963115;28;20130;-74
2023/08/14 00:36:05;;;;;;;6.75;3.00;;;18.20;99.90;;;;;;4980529;28;20132;-75
2023/08/14 00:38:51;;;;;;;5.75;3.08;;;18.20;99.90;;;;;;4979556;28;20042;-74
2023/08/14 00:41:37;;;;;;;13.63;3.35;;;18.10;99.90;;;;;;4989763;28;20074;-75
2023/08/14 00:44:23;;;;;;;9.40;3.45;;;18.10;99.90;;;;;;4981698;28;20042;-76
2023/08/14 00:47:09;;;;;;;9.73;3.20;;;18.10;99.90;;;;;;4979614;28;20434;-75
2023/08/14 00:49:56;;;;;;;8.23;3.00;;;18.10;99.90;;;;;;4957360;28;20043;-75
2023/08/14 00:52:44;;;;;;;9.32;3.28;;;18.10;99.90;;;;;;4978127;28;20057;-75
2023/08/14 00:55:30;;;;;;;4.75;3.00;;;18.10;99.90;;;;;;4967470;28;20422;-75
2023/08/14 00:58:16;;;;;;;8.07;4.13;;;18.00;99.90;;;;;;4980076;28;20034;-75
2023/08/14 01:01:02;;;;;;;6.47;4.47;;;18.00;99.90;;;;;;4971171;28;20053;-75
2023/08/14 01:03:49;;;;;;;10.95;4.68;;;17.90;99.90;;;;;;4979224;28;20038;-75
2023/08/14 01:06:36;;;;;;;14.30;7.95;;;17.80;99.90;;;;;;4992111;28;20112;-75
2023/08/14 01:09:22;;;;;;;8.82;3.25;;;17.80;99.90;;;;;;4981750;28;20448;-75
2023/08/14 01:12:13;;;;;;;8.43;3.10;;;17.80;99.90;;;;;;4974994;28;20478;-75
2023/08/14 01:15:02;;;;;;;7.10;2.83;;;17.80;99.90;;;;;;4947377;28;20097;-75
2023/08/14 01:17:52;;;;;;;7.10;2.75;;;17.80;99.90;;;;;;4946991;28;20057;-75
2023/08/14 01:20:38;;;;;;;7.72;3.13;;;17.80;99.90;;;;;;4976105;28;20038;-74
2023/08/14 01:23:33;;;;;;;9.05;3.03;;;17.80;99.90;;;;;;4979662;28;20046;-74
2023/08/14 01:26:19;;;;;;;5.85;2.63;;;17.80;99.90;;;;;;4973198;28;20168;-75
2023/08/14 01:29:05;;;;;;;5.43;3.00;;;17.80;99.90;;;;;;4979698;28;20085;-75
2023/08/14 01:31:51;;;;;;;5.60;2.50;;;17.80;99.90;;;;;;4992489;28;20119;-75
2023/08/14 01:34:37;;;;;;;5.60;2.50;;;17.80;99.90;;;;;;4961861;28;20069;-76
2023/08/14 01:37:55;;;;;;;5.75;2.83;;;17.90;99.90;;;;;;4990795;28;20380;-75
2023/08/14 01:40:43;;;;;;;8.10;2.97;;;17.90;99.90;;;;;;4963557;28;20042;-75
2023/08/14 01:43:30;;;;;;;5.30;2.97;;;17.90;99.90;;;;;;4991440;28;20072;-75
2023/08/14 01:46:17;;;;;;;4.57;2.85;;;17.90;99.90;;;;;;4982699;28;20042;-75
2023/08/14 01:49:03;;;;;;;5.43;2.80;;;17.90;99.90;;;;;;4967962;28;20058;-75
2023/08/14 01:51:49;;;;;;;7.50;3.13;;;17.90;99.90;;;;;;4987496;28;20105;-75
2023/08/14 01:54:35;;;;;;;12.75;3.35;;;17.90;99.90;;;;;;4945701;28;20105;-74
2023/08/14 01:57:21;;;;;;;7.30;2.58;;;17.80;99.90;;;;;;4975609;28;20039;-75
2023/08/14 02:00:09;;;;;;;8.80;2.60;;;17.80;99.90;;;;;;4951756;28;20041;-75
2023/08/14 02:02:57;;;;;;;7.75;2.65;;;17.80;99.90;;;;;;4958128;28;20439;-75
2023/08/14 02:05:43;;;;;;;5.25;2.60;;;17.80;99.90;;;;;;4968685;28;20042;-74
2023/08/14 02:08:29;;;;;;;4.22;2.90;;;17.80;99.90;;;;;;4964996;28;20053;-75
2023/08/14 02:11:15;;;;;;;6.38;2.58;;;17.80;99.90;;;;;;4983840;28;20048;-75
2023/08/14 02:14:00;;;;;;;9.65;2.95;;;17.80;99.90;;;;;;4976030;28;20042;-75
2023/08/14 02:16:46;;;;;;;7.57;2.63;;;17.80;99.90;;;;;;4974702;28;20062;-75
2023/08/14 02:19:32;;;;;;;7.32;2.80;;;17.70;99.90;;;;;;4977794;28;20174;-75
2023/08/14 02:22:18;;;;;;;8.40;3.10;;;17.70;99.90;;;;;;4976991;28;20513;-75
2023/08/14 02:25:05;;;;;;;6.40;2.70;;;17.70;99.90;;;;;;4977051;28;20071;-75
2023/08/14 02:27:50;;;;;;;5.20;2.50;;;17.70;99.90;;;;;;4958324;28;20093;-75
2023/08/14 02:30:42;;;;;;;7.35;3.03;;;17.70;99.90;;;;;;4969060;28;20173;-75
2023/08/14 02:33:28;;;;;;;11.82;3.17;;;17.70;99.90;;;;;;4980118;28;20058;-75
2023/08/14 02:36:14;;;;;;;9.18;3.03;;;17.60;99.90;;;;;;4981748;28;20339;-75
2023/08/14 02:39:00;;;;;;;7.88;2.80;;;17.60;99.90;;;;;;4971031;28;20042;-75
2023/08/14 02:41:46;;;;;;;6.43;2.67;;;17.60;99.90;;;;;;4976993;28;20042;-75
2023/08/14 02:44:33;;;;;;;4.53;2.55;;;17.60;99.90;;;;;;4991100;28;20093;-75
2023/08/14 02:47:19;;;;;;;7.35;2.67;;;17.60;99.90;;;;;;4977890;28;20370;-75
2023/08/14 02:50:05;;;;;;;9.23;2.90;;;17.60;99.90;;;;;;4967448;28;20675;-75
2023/08/14 02:52:51;;;;;;;6.65;2.55;;;17.60;99.90;;;;;;4965736;28;20052;-75
2023/08/14 02:55:37;;;;;;;6.18;2.88;;;17.60;99.90;;;;;;4964940;28;20124;-75
2023/08/14 02:58:23;;;;;;;8.63;2.95;;;17.50;99.90;;;;;;4978023;28;20049;-75
2023/08/14 03:01:09;;;;;;;7.32;2.55;;;17.50;99.90;;;;;;4990926;28;20049;-75
2023/08/14 03:03:55;;;;;;;7.72;3.13;;;17.50;99.90;;;;;;4945873;28;20034;-75
2023/08/14 03:06:41;;;;;;;7.10;2.65;;;17.40;99.90;;;;;;4959667;28;20051;-74
2023/08/14 03:09:27;;;;;;;11.27;3.10;;;17.40;99.90;;;;;;4978176;28;20045;-74
2023/08/14 03:12:13;;;;;;;7.13;2.67;;;17.40;99.90;;;;;;4964868;28;20503;-75
2023/08/14 03:14:59;;;;;;;6.68;2.60;;;17.50;99.90;;;;;;4975229;28;20096;-75
2023/08/14 03:17:46;;;;;;;6.88;2.72;;;17.40;99.90;;;;;;4991300;28;20073;-75
2023/08/14 03:20:32;;;;;;;7.38;2.95;;;17.50;99.90;;;;;;4970527;28;20367;-75
2023/08/14 03:23:18;;;;;;;5.80;2.42;;;17.40;99.90;;;;;;4965158;28;20074;-74
2023/08/14 03:26:04;;;;;;;7.88;3.13;;;17.40;99.90;;;;;;4963775;28;20049;-74
2023/08/14 03:28:51;;;;;;;9.25;2.78;;;17.40;99.90;;;;;;4987051;28;20129;-75
2023/08/14 03:31:37;;;;;;;9.02;2.85;;;17.40;99.90;;;;;;4980638;28;20088;-75
2023/08/14 03:34:23;;;;;;;7.07;2.67;;;17.40;99.90;;;;;;4992999;28;20057;-75
2023/08/14 03:37:10;;;;;;;9.52;2.55;;;17.50;99.90;;;;;;4984241;28;20128;-75
2023/08/14 03:39:56;;;;;;;8.65;2.38;;;17.40;99.90;;;;;;4982027;28;20038;-75
2023/08/14 03:42:42;;;;;;;5.18;2.85;;;17.40;99.90;;;;;;4988255;28;20062;-75
2023/08/14 03:45:28;;;;;;;8.65;3.05;;;17.40;99.90;;;;;;4989084;28;20057;-74
2023/08/14 03:48:14;;;;;;;6.72;3.30;;;17.40;99.90;;;;;;4978954;28;20529;-75
2023/08/14 03:51:00;;;;;;;5.53;2.70;;;17.40;99.90;;;;;;4978549;28;20042;-74
2023/08/14 03:53:46;;;;;;;10.13;2.90;;;17.40;99.90;;;;;;4989102;28;20057;-75
2023/08/14 03:56:32;;;;;;;6.72;2.75;;;17.40;99.90;;;;;;4969913;28;20039;-75
2023/08/14 03:59:18;;;;;;;8.15;3.60;;;17.40;99.90;;;;;;4984869;28;20042;-75
2023/08/14 04:02:05;;;;;;;6.65;3.17;;;17.40;99.90;;;;;;4978924;28;20123;-75
2023/08/14 04:04:51;;;;;;;7.55;2.80;;;17.40;99.90;;;;;;4967323;28;20049;-75
2023/08/14 04:07:37;;;;;;;6.80;2.72;;;17.40;99.90;;;;;;4981163;28;20089;-76
2023/08/14 04:10:24;;;;;;;6.65;2.50;;;17.40;99.90;;;;;;4967164;28;20451;-75
2023/08/14 04:13:09;;;;;;;7.90;2.65;;;17.40;99.90;;;;;;4973578;28;20069;-75
2023/08/14 04:16:03;;;;;;;6.72;2.65;;;17.40;99.90;;;;;;4966468;28;20030;-75
2023/08/14 04:18:49;;;;;;;7.53;3.03;;;17.50;99.90;;;;;;4967852;28;20038;-75
2023/08/14 04:21:36;;;;;;;8.45;3.22;;;17.40;99.90;;;;;;4992917;28;20069;-75
2023/08/14 04:24:22;;;;;;;6.57;2.70;;;17.40;99.90;;;;;;4990361;28;20605;-75
2023/08/14 04:27:08;;;;;;;9.23;3.20;;;17.40;99.90;;;;;;4979937;28;20128;-75
2023/08/14 04:29:54;;;;;;;7.10;2.75;;;17.40;99.90;;;;;;4963834;28;20046;-75
2023/08/14 04:32:41;;;;;;;8.63;2.97;;;17.40;99.90;;;;;;4961880;28;20057;-75
2023/08/14 04:35:27;;;;;;;6.80;2.50;;;17.40;99.90;;;;;;4982076;28;20033;-75
2023/08/14 04:38:13;;;;;;;7.18;2.65;;;17.40;99.90;;;;;;4990058;28;20037;-75
2023/08/14 04:40:59;;;;;;;9.93;2.67;;;17.40;99.90;;;;;;4986717;28;20033;-75
2023/08/14 04:43:45;;;;;;;6.22;2.70;;;17.40;99.90;;;;;;4987603;28;20050;-75
2023/08/14 04:46:38;;;;;;;8.52;2.70;;;17.40;99.90;;;;;;4980308;28;20041;-75
2023/08/14 04:49:24;;;;;;;10.65;2.53;;;17.30;99.90;;;;;;4982958;28;20052;-75
2023/08/14 04:52:10;;;;;;;9.68;2.60;;;17.30;99.90;;;;;;4993943;28;20034;-75
2023/08/14 04:54:56;;;;;;;7.50;2.40;;;17.30;99.90;;;;;;5013145;28;20038;-75
2023/08/14 04:57:42;;;;;;;4.93;2.60;;;17.30;99.90;;;;;;4971496;28;20044;-75
2023/08/14 05:00:27;;;;;;;5.10;2.33;;;17.40;99.90;;;;;;4984579;28;20054;-75
2023/08/14 05:03:14;;;;;;;8.40;2.30;;;17.30;99.90;;;;;;4998079;28;20136;-75
2023/08/14 05:06:01;;;;;;;10.68;2.60;;;17.40;99.90;;;;;;4985682;28;20120;-75
2023/08/14 05:08:47;;;;;;;6.88;2.38;;;17.30;99.90;;;;;;5011925;28;20037;-75
2023/08/14 05:11:33;;;;;;;4.65;2.80;;;17.40;99.90;;;;;;5013155;28;20602;-75
2023/08/14 05:14:19;;;;;;;7.63;2.42;;;17.40;99.90;;;;;;4984526;28;20034;-75
2023/08/14 05:17:05;;;;;;;5.05;2.53;;;17.40;99.90;;;;;;4981341;28;20042;-75
2023/08/14 05:19:51;;;;;;;6.60;2.80;;;17.40;99.90;;;;;;4986055;28;20043;-75
2023/08/14 05:22:37;;;;;;;6.10;2.28;;;17.40;99.90;;;;;;4985725;28;20054;-75
2023/08/14 05:25:23;;;;;;;5.68;2.30;;;17.40;99.90;;;;;;5011586;28;20048;-75
2023/08/14 05:28:09;;;;;;;15.20;3.55;;;17.40;99.90;;;;;;4994480;28;20056;-75
2023/08/14 05:30:56;;;;;;;8.00;2.33;;;17.50;99.90;;;;;;4978612;28;20077;-75
2023/08/14 05:33:42;;;;;;;6.10;2.38;;;17.50;99.90;;;;;;4990221;28;20054;-75
2023/08/14 05:36:28;;;;;;;8.13;2.78;;;17.50;99.90;;;;;;4995732;28;20465;-75
2023/08/14 05:39:14;;;;;;;5.47;2.60;;;17.60;99.90;;;;;;4971184;28;20037;-75
2023/08/14 05:42:01;;;;;;;6.93;2.60;;;17.60;99.90;;;;;;4984852;28;20124;-76
2023/08/14 05:44:47;;;;;;;5.93;2.75;;;17.60;99.90;;;;;;4979174;28;20508;-76
2023/08/14 05:47:33;;;;;;;8.48;2.75;;;17.70;99.90;;;;;;4974034;28;20050;-75
2023/08/14 05:50:21;;;;;;;8.45;2.72;;;17.70;99.90;;;;;;4999984;28;20716;-76
2023/08/14 05:53:07;;;;;;;4.95;2.50;;;17.80;99.90;;;;;;4983470;28;20443;-76
2023/08/14 05:55:53;;;;;;;7.68;2.90;;;17.80;99.90;;;;;;4982870;28;20034;-76
2023/08/14 05:58:39;;;;;;;5.32;2.17;;;17.80;99.90;;;;;;5010579;28;20038;-76
2023/08/14 06:01:26;;;;;;;6.43;3.05;;;17.90;99.90;;;;;;4969968;28;20112;-75
2023/08/14 06:04:12;;;;;;;4.88;2.55;;;17.90;99.90;;;;;;4977245;28;20103;-76
2023/08/14 06:06:59;;;;;;;7.45;2.65;;;18.00;99.90;;;;;;4998142;28;20042;-76
2023/08/14 06:09:45;;;;;;;5.75;2.45;;;18.00;99.90;;;;;;4996640;28;20561;-76
2023/08/14 06:12:31;;;;;;;6.47;2.20;;;18.10;99.90;;;;;;4996479;28;20087;-76
2023/08/14 06:15:21;;;;;;;6.22;2.67;;;18.10;99.90;;;;;;4983642;28;20046;-74
2023/08/14 06:18:07;;;;;;;5.85;2.58;;;18.10;99.90;;;;;;4965690;28;20220;-75
2023/08/14 06:20:54;;;;;;;8.13;2.63;;;18.20;99.90;;;;;;4964135;28;20089;-75
2023/08/14 06:23:39;;;;;;;6.78;2.53;;;18.30;99.90;;;;;;4981995;28;20798;-75
2023/08/14 06:26:26;;;;;;;7.40;2.85;;;18.30;99.90;;;;;;5010425;28;20124;-75
2023/08/14 06:29:12;;;;;;;8.18;3.10;;;18.40;99.90;;;;;;4978263;28;20074;-75
2023/08/14 06:31:57;;;;;;;7.90;2.60;;;18.50;99.90;;;;;;4997194;28;20056;-76
2023/08/14 06:34:43;;;;;;;9.15;2.35;;;18.50;99.90;;;;;;4983398;28;20064;-76
2023/08/14 06:37:30;;;;;;;6.60;2.38;;;18.60;99.90;;;;;;4980956;28;20106;-76
2023/08/14 06:40:16;;;;;;;5.20;2.72;;;18.70;99.90;;;;;;4988107;28;20106;-75
2023/08/14 06:43:03;;;;;;;7.70;2.60;;;18.80;99.90;;;;;;4996650;28;20048;-77
2023/08/14 06:45:49;;;;;;;6.93;2.30;;;18.90;99.90;;;;;;4995281;28;20046;-76
2023/08/14 06:48:35;;;;;;;6.53;2.22;;;18.90;99.90;;;;;;5002648;28;20477;-75
2023/08/14 06:51:21;;;;;;;7.95;2.40;;;19.00;99.90;;;;;;4980984;28;20050;-75
2023/08/14 06:54:07;;;;;;;5.93;2.53;;;19.00;99.90;;;;;;4981661;28;20092;-75
2023/08/14 06:56:53;;;;;;;5.60;2.45;;;19.10;99.90;;;;;;5009571;28;20034;-75
2023/08/14 06:59:39;;;;;;;8.10;2.55;;;19.20;99.90;;;;;;4951409;28;20042;-75
2023/08/14 07:02:25;;;;;;;6.00;2.50;;;19.30;99.90;;;;;;4979692;28;20083;-74
2023/08/14 07:05:11;;;;;;;4.03;2.10;;;19.30;99.90;;;;;;4997874;28;20045;-75
2023/08/14 07:07:57;;;;;;;6.63;2.42;;;19.40;99.90;;;;;;4967626;28;20081;-75
2023/08/14 07:10:43;;;;;;;6.55;2.45;;;19.50;99.90;;;;;;4969228;28;20046;-75
2023/08/14 07:13:29;;;;;;;5.97;2.10;;;19.60;99.90;;;;;;4975951;28;20069;-75
2023/08/14 07:16:15;;;;;;;6.25;2.60;;;19.70;99.90;;;;;;4986011;28;20067;-75
2023/08/14 07:19:01;;;;;;;7.07;2.90;;;19.70;99.90;;;;;;5000918;28;20124;-75
2023/08/14 07:21:47;;;;;;;5.43;2.17;;;19.80;99.90;;;;;;5000508;28;20113;-75
2023/08/14 07:24:33;;;;;;;6.13;2.67;;;19.90;99.90;;;;;;4986573;28;20120;-75
2023/08/14 07:27:19;;;;;;;5.25;2.35;;;19.90;99.90;;;;;;4973336;28;20490;-75
2023/08/14 07:30:05;;;;;;;8.40;2.70;;;20.00;99.90;;;;;;4982322;28;20601;-75
2023/08/14 07:32:51;;;;;;;4.50;2.58;;;20.10;99.90;;;;;;4980395;28;20152;-75
2023/08/14 07:35:37;;;;;;;5.88;2.20;;;20.20;99.90;;;;;;4990190;28;20053;-75
2023/08/14 07:38:25;;;;;;;5.70;2.20;;;20.20;99.90;;;;;;5002974;28;20034;-75
2023/08/14 07:41:11;;;;;;;7.20;2.50;;;20.40;99.90;;;;;;4986201;28;20099;-75
2023/08/14 07:43:57;;;;;;;6.25;2.17;;;20.40;99.90;;;;;;4981256;28;20042;-75
2023/08/14 07:46:43;;;;;;;4.40;2.28;;;20.40;99.90;;;;;;5000116;28;20045;-75
2023/08/14 07:49:32;;;;;;;6.50;2.13;;;20.50;99.90;;;;;;4979348;28;20094;-74
2023/08/14 07:52:18;;;;;;;3.15;1.88;;;20.70;99.90;;;;;;4970951;28;20648;-75
2023/08/14 07:55:04;;;;;;;4.85;1.92;;;20.90;99.90;;;;;;4981527;28;20046;-76
2023/08/14 07:57:50;;;;;;;4.50;2.63;;;20.90;99.90;;;;;;4981306;28;20045;-75
2023/08/14 08:00:37;;;;;;;8.20;2.78;;;20.90;99.90;;;;;;4975325;28;20128;-75
2023/08/14 08:03:24;;;;;;;4.87;2.63;;;21.00;99.90;;;;;;5000193;28;20049;-75
2023/08/14 08:06:09;;;;;;;4.75;1.90;;;21.00;99.90;;;;;;4983458;28;20104;-75
2023/08/14 08:08:55;;;;;;;3.88;1.60;;;21.10;99.90;;;;;;4973595;28;20116;-75
2023/08/14 08:11:41;;;;;;;6.68;2.20;;;21.20;99.90;;;;;;4965235;28;20062;-75
2023/08/14 08:14:27;;;;;;;9.20;2.60;;;21.30;99.90;;;;;;4987423;28;20038;-75
2023/08/14 08:17:13;;;;;;;7.53;2.00;;;21.40;99.90;;;;;;4997826;28;20034;-75
2023/08/14 08:19:59;;;;;;;6.68;2.25;;;21.50;99.90;;;;;;4972519;28;20030;-75
2023/08/14 08:22:45;;;;;;;5.28;1.90;;;21.60;99.90;;;;;;4967495;28;20053;-75
2023/08/14 08:25:31;;;;;;;6.97;2.38;;;21.60;99.90;;;;;;4964384;28;20048;-76
2023/08/14 08:28:17;;;;;;;5.68;2.20;;;21.70;99.90;;;;;;4986245;28;20057;-76
2023/08/14 08:31:03;;;;;;;4.68;2.05;;;21.70;99.90;;;;;;4989283;28;20128;-76
2023/08/14 08:33:49;;;;;;;7.57;1.98;;;22.00;99.90;;;;;;4984433;28;20045;-75
2023/08/14 08:36:35;;;;;;;3.60;1.85;;;22.10;99.90;;;;;;4979282;28;20042;-75
2023/08/14 08:39:21;;;;;;;4.15;1.90;;;22.20;99.90;;;;;;4970884;28;20048;-74
2023/08/14 08:42:07;;;;;;;4.38;1.70;;;22.20;99.90;;;;;;4970064;28;20045;-75
2023/08/14 08:44:53;;;;;;;5.82;1.90;;;22.30;99.90;;;;;;4979729;28;20844;-74
2023/08/14 08:47:39;;;;;;;4.43;2.08;;;22.40;99.90;;;;;;4984436;28;20550;-74
2023/08/14 08:50:27;;;;;;;5.53;1.90;;;22.40;99.90;;;;;;4982532;28;20045;-75
2023/08/14 08:53:13;;;;;;;4.70;1.88;;;22.60;99.90;;;;;;4966760;28;20080;-74
2023/08/14 08:55:59;;;;;;;8.15;2.00;;;22.70;99.90;;;;;;4985893;28;20446;-74
2023/08/14 08:58:47;;;;;;;6.68;1.92;;;22.80;99.90;;;;;;4972265;28;20037;-75
2023/08/14 09:01:33;;;;;;;4.68;2.25;;;22.90;99.90;;;;;;5010840;28;20041;-74
2023/08/14 09:04:19;;;;;;;5.95;1.90;;;22.90;99.90;;;;;;4994822;28;20057;-74
2023/08/14 09:07:05;;;;;;;4.47;2.00;;;23.00;99.90;;;;;;4977249;28;20034;-74
2023/08/14 09:09:51;;;;;;;4.00;1.98;;;23.00;99.90;;;;;;4970463;28;20045;-75
2023/08/14 09:12:37;;;;;;;6.47;1.80;;;23.00;99.90;;;;;;4979314;28;20090;-75
2023/08/14 09:15:24;;;;;;;5.03;2.10;;;23.00;99.90;;;;;;4968665;28;20045;-75
2023/08/14 09:18:10;;;;;;;5.57;2.38;;;23.10;99.90;;;;;;4975770;28;20104;-74
2023/08/14 09:20:57;;;;;;;4.38;2.20;;;23.10;99.90;;;;;;4982428;28;20045;-75
2023/08/14 09:23:43;;;;;;;2.88;1.70;;;23.30;99.90;;;;;;4981665;28;20156;-75
2023/08/14 09:26:29;;;;;;;5.50;2.38;;;23.30;99.90;;;;;;4972173;28;20057;-75
2023/08/14 09:29:15;;;;;;;7.10;2.20;;;23.30;99.90;;;;;;4961216;28;20573;-75
2023/08/14 09:32:01;;;;;;;4.68;2.10;;;23.50;99.90;;;;;;4967856;28;20046;-75
2023/08/14 09:34:47;;;;;;;4.65;1.80;;;23.50;99.90;;;;;;4964730;28;20149;-74
2023/08/14 09:37:34;;;;;;;5.15;2.05;;;23.60;99.90;;;;;;4961987;28;20038;-75
2023/08/14 09:40:20;;;;;;;10.93;2.22;;;23.70;99.90;;;;;;4978887;28;20034;-75
2023/08/14 09:43:06;;;;;;;4.60;1.95;;;23.80;99.90;;;;;;4991110;28;20220;-75
2023/08/14 09:45:53;;;;;;;8.20;2.03;;;23.80;99.90;;;;;;4976491;28;20038;-75
2023/08/14 09:48:47;;;;;;;5.72;1.80;;;23.90;99.90;;;;;;4989156;28;20822;-75
2023/08/14 09:51:33;;;;;;;7.10;4.95;;;23.90;99.90;;;;;;4974505;28;20038;-75
2023/08/14 09:54:19;;;;;;;5.28;2.45;;;24.00;99.90;;;;;;4990858;28;20046;-75
2023/08/14 09:57:05;;;;;;;5.53;2.42;;;24.00;99.90;;;;;;4988299;28;20038;-74
2023/08/14 09:59:51;;;;;;;5.68;2.10;;;23.90;99.90;;;;;;4978482;28;20042;-75
2023/08/14 10:02:39;;;;;;;3.38;2.05;;;23.90;99.90;;;;;;4987829;28;20184;-75
2023/08/14 10:05:25;;;;;;;4.72;2.28;;;24.00;99.90;;;;;;4949610;28;20075;-75
2023/08/14 10:08:11;;;;;;;4.88;2.10;;;24.10;99.90;;;;;;4976576;28;20068;-75
2023/08/14 10:10:57;;;;;;;3.90;2.05;;;24.10;99.90;;;;;;4969690;28;20051;-75
2023/08/14 10:13:45;;;;;;;7.43;2.63;;;24.20;99.90;;;;;;4944999;28;20108;-74
2023/08/14 10:16:34;;;;;;;6.72;2.33;;;24.20;99.90;;;;;;4966607;28;20507;-75
2023/08/14 10:19:21;;;;;;;4.60;2.33;;;24.10;99.90;;;;;;4988979;28;20061;-74
2023/08/14 10:22:07;;;;;;;5.50;2.42;;;24.20;99.90;;;;;;4963032;28;20046;-74
2023/08/14 10:24:53;;;;;;;7.60;2.45;;;24.20;99.90;;;;;;4955904;28;20055;-74
2023/08/14 10:27:39;;;;;;;4.43;2.05;;;24.20;99.90;;;;;;4986862;28;20109;-75
2023/08/14 10:30:25;;;;;;;5.03;2.58;;;24.20;99.90;;;;;;4969640;28;20103;-74
2023/08/14 10:33:12;;;;;;;6.57;2.30;;;24.20;99.90;;;;;;4983657;28;20041;-75
2023/08/14 10:35:59;;;;;;;7.95;2.03;;;24.20;99.90;;;;;;4977415;28;20038;-74
2023/08/14 10:38:46;;;;;;;5.75;2.20;;;24.30;99.90;;;;;;4973161;28;20073;-75
2023/08/14 10:41:34;;;;;;;4.28;2.13;;;24.30;99.90;;;;;;4959545;28;20042;-74
2023/08/14 10:44:20;;;;;;;8.10;2.67;;;24.30;99.90;;;;;;4982851;28;20031;-75
2023/08/14 10:47:06;;;;;;;4.38;1.92;;;24.40;99.90;;;;;;4999485;28;20037;-74
2023/08/14 10:49:52;;;;;;;5.53;2.10;;;24.50;99.90;;;;;;4973442;28;20029;-75
2023/08/14 10:52:38;;;;;;;4.57;2.10;;;24.50;99.90;;;;;;4971580;28;20113;-74
2023/08/14 10:55:25;;;;;;;6.55;2.42;;;24.60;99.90;;;;;;4971586;28;20037;-74
2023/08/14 10:58:35;;;;;;;4.20;1.95;;;24.70;99.90;;;;;;4980597;28;20133;-75
2023/08/14 11:01:22;;;;;;;3.65;1.95;;;24.70;99.90;;;;;;4985855;28;20081;-74
2023/08/14 11:04:08;;;;;;;5.32;2.47;;;25.00;99.90;;;;;;4985980;28;20045;-74
2023/08/14 11:06:57;;;;;;;5.20;1.90;;;25.30;99.90;;;;;;4984432;28;20133;-74
2023/08/14 11:09:44;;;;;;;5.40;2.13;;;25.30;99.90;;;;;;5009194;28;20120;-75
2023/08/14 11:12:33;;;;;;;5.40;1.92;;;25.30;99.90;;;;;;4978066;28;20046;-75
2023/08/14 11:15:20;;;;;;;5.60;2.35;;;25.40;99.90;;;;;;4984546;28;20037;-74
2023/08/14 11:18:09;;;;;;;4.60;2.67;;;25.60;99.90;;;;;;4998981;28;20038;-75
2023/08/14 11:20:59;;;;;;;4.03;2.10;;;25.70;99.90;;;;;;4968086;28;20052;-75
2023/08/14 11:23:45;;;;;;;5.38;2.00;;;25.70;99.90;;;;;;4977517;28;20422;-75
2023/08/14 11:26:31;;;;;;;6.40;2.40;;;25.70;99.90;;;;;;4970196;28;20125;-76
2023/08/14 11:29:17;;;;;;;4.78;2.38;;;25.80;99.90;;;;;;4986710;28;20133;-76
2023/08/14 11:32:03;;;;;;;5.72;2.45;;;26.00;99.90;;;;;;4997306;28;20521;-74
2023/08/14 11:34:49;;;;;;;5.85;2.10;;;26.10;99.90;;;;;;4998275;28;20727;-74
2023/08/14 11:37:35;;;;;;;5.05;2.08;;;26.00;99.90;;;;;;4972233;28;20068;-74
2023/08/14 11:40:21;;;;;;;4.57;1.80;;;26.20;99.90;;;;;;4985018;28;20517;-75
2023/08/14 11:43:09;;;;;;;3.97;2.25;;;26.40;99.90;;;;;;4997346;28;20042;-75
2023/08/14 11:45:55;;;;;;;;;;;26.60;99.90;;;;;;4971175;28;20378;-75
2023/08/14 11:48:42;;;;;;;2.97;1.80;;;26.60;99.90;;;;;;4985398;28;19967;-75
2023/08/14 11:51:29;;;;;;;5.07;2.17;;;26.70;99.90;;;;;;5010439;28;20052;-75
2023/08/14 11:54:15;;;;;;;8.18;2.42;;;26.80;99.90;;;;;;4967008;28;20105;-75
2023/08/14 11:57:04;;;;;;;7.40;2.55;;;26.70;99.90;;;;;;4975756;28;20154;-75
2023/08/14 11:59:52;;;;;;;4.97;2.10;;;26.70;99.90;;;;;;4982053;28;20513;-75
2023/08/14 12:02:38;;;;;;;;;;;26.80;99.90;;;;;;4973089;28;20862;-75
2023/08/14 12:05:24;;;;;;;3.42;2.20;;;26.90;99.90;;;;;;4997531;28;20393;-75
2023/08/14 12:08:12;;;;;;;5.88;2.33;;;27.00;99.90;;;;;;4956925;28;20049;-75
2023/08/14 12:10:58;;;;;;;5.53;2.53;;;27.00;99.90;;;;;;4965038;28;20053;-75
2023/08/14 12:13:53;;;;;;;10.70;2.35;;;27.10;99.90;;;;;;4969075;28;20049;-75
2023/08/14 12:16:39;;;;;;;5.30;2.53;;;27.20;99.90;;;;;;4996921;28;20839;-75
2023/08/14 12:19:27;;;;;;;7.32;2.25;;;27.50;99.90;;;;;;4969585;28;20034;-75
2023/08/14 12:22:13;;;;;;;3.83;2.20;;;27.60;99.90;;;;;;4984888;28;20073;-75
2023/08/14 12:24:59;;;;;;;6.25;2.70;;;27.70;99.90;;;;;;4973390;28;20042;-75
2023/08/14 12:27:45;;;;;;;6.53;2.33;;;27.80;99.90;;;;;;4972002;28;20399;-75
2023/08/14 12:30:31;;;;;;;8.38;2.58;;;28.00;99.90;;;;;;4983894;28;20037;-75
2023/08/14 12:33:17;;;;;;;7.72;2.30;;;28.00;99.90;;;;;;4970634;28;20058;-75
2023/08/14 12:36:06;;;;;;;8.88;2.30;;;28.00;99.90;;;;;;4968087;28;20108;-75
2023/08/14 12:38:52;;;;;;;5.43;2.30;;;28.20;99.90;;;;;;4977781;28;20460;-75
2023/08/14 12:41:38;;;;;;;5.95;2.55;;;28.30;99.90;;;;;;4965594;28;20038;-74
2023/08/14 12:44:24;;;;;;;5.05;2.03;;;28.30;99.90;;;;;;4978685;28;20038;-76
2023/08/14 12:47:12;;;;;;;6.70;2.30;;;28.40;99.50;;;;;;4979840;28;20443;-75
2023/08/14 12:49:58;;;;;;;13.63;2.47;;;28.30;99.40;;;;;;4997451;28;20042;-75
2023/08/14 12:52:44;;;;;;;6.47;2.42;;;28.20;99.70;;;;;;4996330;28;20748;-74
2023/08/14 12:55:30;;;;;;;4.18;2.63;;;28.30;99.90;;;;;;4995901;28;20048;-74
2023/08/14 12:58:16;;;;;;;5.30;2.50;;;28.20;99.80;;;;;;4970307;28;20085;-75
2023/08/14 13:01:02;;;;;;;7.60;2.58;;;28.10;99.90;;;;;;4965126;28;20049;-75
2023/08/14 13:03:48;;;;;;;6.82;2.40;;;27.90;99.60;;;;;;4979006;28;20042;-75
2023/08/14 13:06:34;;;;;;;5.05;2.17;;;28.00;99.90;;;;;;4969063;28;20100;-77
2023/08/14 13:09:20;;;;;;;4.88;2.10;;;27.90;99.90;;;;;;4982879;28;20038;-75
2023/08/14 13:12:06;;;;;;;4.63;2.30;;;27.90;99.90;;;;;;4982049;28;20111;-74
2023/08/14 13:14:52;;;;;;;6.35;2.55;;;27.90;99.90;;;;;;4995772;28;20038;-74
2023/08/14 13:17:39;;;;;;;5.97;2.75;;;27.80;99.90;;;;;;4989806;28;20072;-74
2023/08/14 13:20:25;;;;;;;5.57;2.45;;;27.70;99.90;;;;;;5002250;28;20068;-75
2023/08/14 13:23:11;;;;;;;6.45;2.35;;;27.60;99.90;;;;;;4985474;28;20454;-75
2023/08/14 13:25:57;;;;;;;5.90;2.47;;;27.50;99.90;;;;;;5011034;28;20042;-76
2023/08/14 13:28:43;;;;;;;5.68;2.30;;;27.50;99.90;;;;;;5002578;28;20038;-76
2023/08/14 13:31:29;;;;;;;5.93;2.25;;;27.50;99.90;;;;;;4999892;28;20042;-75
2023/08/14 13:34:15;;;;;;;4.53;2.42;;;27.70;99.90;;;;;;5008923;28;20053;-75
2023/08/14 13:37:01;;;;;;;5.00;2.20;;;27.80;99.90;;;;;;4982930;28;20417;-76
2023/08/14 13:39:47;;;;;;;4.63;2.20;;;27.90;99.90;;;;;;4996084;28;20053;-76
2023/08/14 13:42:33;;;;;;;6.82;2.80;;;28.20;99.90;;;;;;4997375;28;20041;-76
2023/08/14 13:45:20;;;;;;;7.70;2.38;;;28.50;99.90;;;;;;5002590;28;20046;-77
2023/08/14 13:48:06;;;;;;;4.65;2.20;;;28.80;99.90;;;;;;4986443;28;20544;-77
2023/08/14 13:50:52;;;;;;;5.88;2.40;;;29.10;99.90;;;;;;4984993;28;20085;-77
2023/08/14 13:53:38;;;;;;;7.75;2.38;;;29.50;98.90;;;;;;4979738;28;20367;-76
2023/08/14 13:56:24;;;;;;;7.75;2.30;;;29.80;99.40;;;;;;4994815;28;20041;-77
2023/08/14 13:59:10;;;;;;;4.38;2.22;;;30.10;98.20;;;;;;4997653;28;20064;-77
2023/08/14 14:01:56;;;;;;;4.80;2.30;;;30.10;97.50;;;;;;4986429;28;20537;-77
2023/08/14 14:04:42;;;;;;;7.05;2.70;;;30.20;97.90;;;;;;4993778;28;20048;-77
2023/08/14 14:07:28;;;;;;;8.30;2.55;;;30.00;98.30;;;;;;4982564;28;20042;-76
2023/08/14 14:10:14;;;;;;;7.13;2.78;;;30.00;97.80;;;;;;4981857;28;20450;-76
2023/08/14 14:13:01;;;;;;;4.47;2.20;;;30.00;97.60;;;;;;4969086;28;20037;-76
2023/08/14 14:15:47;;;;;;;4.78;2.30;;;30.00;97.50;;;;;;4987187;28;20045;-76
2023/08/14 14:18:33;;;;;;;5.75;2.50;;;29.90;97.90;;;;;;4995105;28;20037;-76
2023/08/14 14:21:20;;;;;;;4.85;2.90;;;29.70;98.80;;;;;;4980182;28;20046;-76
2023/08/14 14:24:06;;;;;;;7.15;2.72;;;29.50;98.30;;;;;;4970381;28;20049;-76
2023/08/14 14:26:52;;;;;;;4.57;2.30;;;29.30;98.50;;;;;;4974330;28;20140;-76
2023/08/14 14:29:38;;;;;;;7.47;2.88;;;29.10;98.80;;;;;;4980006;28;20042;-76